Saint-Moise, Canada
Current Conditions -  °F | °C
As of 4:00 AM on Thursday 23 Oct 2014 (Local Time) from CYYY Reporting Station
Clear Clear  
Wind Chill: 28°   Ceiling: Unl
Heat Index: 34°   Visibility: 30mi
Dew Point: 32°   Wind: 7mph
Humidity: 93%   Direction: 90°E
Pressure: 30.36"   Gusts: NA
Location:  48.53°N, 67.85°W
Report Text: CYYY 230800Z 09006KT 30SM SKC 01/00 A3036 RMK SLP283
Loading
Personal Weather Stations






























Interactive Weather Map
Tropical Storm Tracking
New forecast layout! Learn more

10-Day Weather Forecast

Advertisements
Track Severe Weather on mobile